createdAt,value
2018-09-03T00:04:28.085Z,27.3
2018-09-03T00:14:42.306Z,26.5
2018-09-03T00:25:27.471Z,27.9
2018-09-03T00:35:41.853Z,27.2
2018-09-03T00:45:55.796Z,28.3
2018-09-03T00:56:10.159Z,35.4
2018-09-03T01:06:55.782Z,28.2
2018-09-03T01:17:09.753Z,26.2
2018-09-03T01:27:22.228Z,28.2
2018-09-03T01:37:34.388Z,29.1
2018-09-03T01:47:48.279Z,36.9
2018-09-03T01:58:03.198Z,28.3
2018-09-03T02:08:16.856Z,43.2
2018-09-03T02:19:03.593Z,29.4
2018-09-03T02:29:18.029Z,29.2
2018-09-03T02:39:32.096Z,34.9
2018-09-03T02:49:43.393Z,27.5
2018-09-03T02:59:57.683Z,28.6
2018-09-03T03:10:11.787Z,30.1
2018-09-03T03:20:23.566Z,30.2
2018-09-03T03:31:07.748Z,30.2
2018-09-03T03:41:22.486Z,32.8
2018-09-03T03:52:07.976Z,31.3
2018-09-03T04:02:22.036Z,32.2
2018-09-03T04:12:36.363Z,33.1
2018-09-03T04:22:50.453Z,31.5
2018-09-03T04:33:04.769Z,29.8
2018-09-03T04:43:19.012Z,28.0
2018-09-03T04:53:32.986Z,33.5
2018-09-03T05:03:47.432Z,30.4
2018-09-03T05:14:01.596Z,32.7
2018-09-03T05:24:46.965Z,37.1
2018-09-03T05:35:00.680Z,31.2
2018-09-03T05:45:14.485Z,31.1
2018-09-03T05:55:29.071Z,30.2
2018-09-03T06:05:43.319Z,35.3
2018-09-03T06:16:58.749Z,35.9
2018-09-03T06:27:12.352Z,45.1
2018-09-03T06:37:26.316Z,36.3
2018-09-03T06:47:40.558Z,32.0
2018-09-03T06:57:55.086Z,33.8
2018-09-03T07:08:09.299Z,31.1
2018-09-03T07:18:54.093Z,40.4
2018-09-03T07:29:07.999Z,29.7
2018-09-03T07:39:21.572Z,32.4
2018-09-03T07:49:35.720Z,32.5
2018-09-03T07:59:49.970Z,33.2
2018-09-03T08:10:04.664Z,42.5
2018-09-03T08:20:16.932Z,29.4
2018-09-03T08:30:30.629Z,31.3
2018-09-03T08:40:45.551Z,36.3
2018-09-03T08:50:59.405Z,32.8
2018-09-03T09:01:29.256Z,43.5
2018-09-03T09:11:43.530Z,38.3
2018-09-03T09:21:54.926Z,33.4
2018-09-03T09:42:23.865Z,30.3
2018-09-03T09:52:37.706Z,26.3
2018-09-03T10:02:51.719Z,27.2
2018-09-03T10:13:07.330Z,29.3
2018-09-03T10:23:21.288Z,28.0
2018-09-03T10:33:35.935Z,26.6
2018-09-03T10:43:50.055Z,27.4
2018-09-03T10:54:03.979Z,28.2
2018-09-03T11:04:18.172Z,25.8
2018-09-03T11:14:32.136Z,26.1
2018-09-03T11:24:46.525Z,23.8
2018-09-03T11:34:58.092Z,32.9
2018-09-03T11:45:10.311Z,23.2
2018-09-03T11:56:03.597Z,26.3
2018-09-03T12:06:17.310Z,25.1
2018-09-03T12:16:39.938Z,28.9
2018-09-03T12:26:53.404Z,26.6
2018-09-03T12:37:08.019Z,28.0
2018-09-03T12:47:22.011Z,26.4
2018-09-03T12:57:36.159Z,32.5
2018-09-03T13:07:54.782Z,30.4
2018-09-03T13:18:11.324Z,32.1
2018-09-03T13:28:36.755Z,47.8
2018-09-03T13:39:30.640Z,35.6
2018-09-03T13:49:58.519Z,29.7
2018-09-03T14:00:46.026Z,33.2
2018-09-03T14:12:05.474Z,31.3
2018-09-03T14:22:37.437Z,29.4
2018-09-03T14:32:51.853Z,29.3
2018-09-03T14:53:54.742Z,25.4
2018-09-03T15:04:39.514Z,31.5
2018-09-03T15:14:55.054Z,31.4
2018-09-03T15:25:06.691Z,32.9
2018-09-03T15:35:28.614Z,33.9
2018-09-03T15:45:42.851Z,31.5
2018-09-03T15:56:27.182Z,33.3
2018-09-03T16:07:13.589Z,38.2
2018-09-03T16:17:27.628Z,32.2
2018-09-03T16:28:13.157Z,35.3
2018-09-03T16:38:32.432Z,34.8
2018-09-03T16:48:49.957Z,39.3
2018-09-03T16:59:34.068Z,34.7
2018-09-03T17:10:18.862Z,35.7
2018-09-03T17:20:36.157Z,34.8
2018-09-03T17:30:50.737Z,37.7
2018-09-03T17:41:36.246Z,33.1
2018-09-03T17:53:19.786Z,35.0
2018-09-03T18:03:34.186Z,35.3
2018-09-03T18:13:48.387Z,43.9
2018-09-03T18:24:02.645Z,37.2
2018-09-03T18:34:27.231Z,37.2
2018-09-03T18:44:40.905Z,37.8
2018-09-03T18:54:54.657Z,38.6
2018-09-03T19:05:11.368Z,38.2
2018-09-03T19:15:25.432Z,36.7
2018-09-03T19:25:39.653Z,38.1
2018-09-03T19:36:24.207Z,44.9
2018-09-03T19:46:42.993Z,40.2
2018-09-03T19:56:56.569Z,34.6
2018-09-03T20:07:10.807Z,37.4
2018-09-03T20:17:24.919Z,40.8
2018-09-03T20:27:39.518Z,38.5
2018-09-03T20:37:53.925Z,37.4
2018-09-03T20:48:07.682Z,54.8
2018-09-03T20:58:22.223Z,43.2
2018-09-03T21:08:36.254Z,46.0
2018-09-03T21:18:50.578Z,37.9
2018-09-03T21:29:02.873Z,44.6
2018-09-03T21:39:17.230Z,41.9
2018-09-03T21:50:01.879Z,45.3
2018-09-03T22:00:47.500Z,37.6
2018-09-03T22:11:32.373Z,35.2
2018-09-03T22:22:19.214Z,31.8
2018-09-03T22:32:33.794Z,31.8
2018-09-03T22:43:19.213Z,42.9
2018-09-03T22:54:03.800Z,56.3
2018-09-03T23:04:49.678Z,54.9
2018-09-03T23:15:03.909Z,47.4
2018-09-03T23:25:16.305Z,39.9
2018-09-03T23:36:00.719Z,57.8
2018-09-03T23:46:15.299Z,54.8
2018-09-03T23:56:29.035Z,47.6
